LF7322 weather

Altisurface du Glacier de l'Étendard
St Sorlin D'Arves, Auvergne-Rhône-Alpes, France

Public forecast

Using degrees Celsius for public forecast. Weather courtesy of forecast.io.

Closest aviation weather report (METAR) to Altisurface du Glacier de l'Étendard

Closest report is Chambéry-Savoie Airport, 31.0 nm (57.4 km) NNW. Retrieved 2020/08/07 15:00 UTC (11 minutes ago):

LFLB 071500Z AUTO 33003KT 310V010 CAVOK 34/13 Q1017 NOSIG

Closest aviation forecast (TAF) to Altisurface du Glacier de l'Étendard

Closest forecast is Chambéry-Savoie Airport, 31.0 nm (57.4 km) NNW. Retrieved 2020/08/07 12:21 UTC (3 hours ago):

TAF LFLB 071100Z 0712/0812 35006KT CAVOK BECMG 0722/0724 VRB02KT